Time;durP1;ratioP1;P1;durP2;ratioP2;P2;SDS_P1;SDS_P2;PMS_P1;PMS_P2;Temp;Humidity;BMP_temperature;BMP_pressure;BME280_temperature;BME280_humidity;BME280_pressure;Samples;Min_cycle;Max_cycle;Signal;HPM_P1;HPM_P2
2022/03/17 00:01:43;;;;;;;62.72;27.17;;;;;;;;;;5078173;28;20036;-82
2022/03/17 00:04:08;;;;;;;68.07;29.95;;;;;;;;;;5077230;28;20119;-82
2022/03/17 00:06:34;;;;;;;61.58;29.80;;;;;;;;;;5059791;28;20036;-81
2022/03/17 00:09:00;;;;;;;67.70;30.15;;;;;;;;;;5077893;28;20033;-82
2022/03/17 00:11:26;;;;;;;67.28;28.38;;;;;;;;;;5076729;28;20035;-82
2022/03/17 00:13:52;;;;;;;70.15;32.50;;;;;;;;;;5060187;28;20103;-83
2022/03/17 00:16:17;;;;;;;65.20;29.33;;;;;;;;;;5078008;28;20033;-81
2022/03/17 00:18:43;;;;;;;69.90;31.77;;;;;;;;;;5077275;28;20071;-81
2022/03/17 00:21:08;;;;;;;72.30;34.10;;;;;;;;;;5077982;28;20035;-82
2022/03/17 00:23:34;;;;;;;84.10;38.17;;;;;;;;;;5076699;28;20046;-82
2022/03/17 00:25:59;;;;;;;82.30;34.90;;;;;;;;;;5059937;28;20170;-82
2022/03/17 00:28:25;;;;;;;81.72;37.45;;;;;;;;;;5059540;28;20032;-82
2022/03/17 00:30:50;;;;;;;78.30;36.20;;;;;;;;;;5059858;28;20086;-82
2022/03/17 00:33:16;;;;;;;81.35;37.47;;;;;;;;;;5077487;28;20033;-82
2022/03/17 00:35:44;;;;;;;76.03;36.30;;;;;;;;;;5075976;28;20039;-81
2022/03/17 00:38:15;;;;;;;78.82;33.20;;;;;;;;;;5076550;28;20052;-81
2022/03/17 00:40:42;;;;;;;80.68;36.35;;;;;;;;;;5061241;28;20033;-82
2022/03/17 00:43:09;;;;;;;76.53;34.63;;;;;;;;;;5081612;28;20365;-82
2022/03/17 00:45:35;;;;;;;79.05;35.80;;;;;;;;;;5059514;28;20504;-81
2022/03/17 00:48:00;;;;;;;80.57;36.03;;;;;;;;;;5059416;28;20128;-81
2022/03/17 00:50:26;;;;;;;74.45;34.33;;;;;;;;;;5059130;28;20028;-82
2022/03/17 00:52:52;;;;;;;68.32;32.67;;;;;;;;;;5076108;28;20032;-83
2022/03/17 00:55:18;;;;;;;66.18;29.98;;;;;;;;;;5095005;28;20059;-81
2022/03/17 00:57:44;;;;;;;59.13;26.85;;;;;;;;;;5081623;28;20024;-81
2022/03/17 01:00:14;;;;;;;67.15;30.60;;;;;;;;;;5079193;28;20438;-81
2022/03/17 01:02:41;;;;;;;73.78;33.55;;;;;;;;;;5076076;28;20040;-82
2022/03/17 01:05:07;;;;;;;77.95;35.80;;;;;;;;;;5061795;28;20373;-82
2022/03/17 01:07:32;;;;;;;71.97;32.80;;;;;;;;;;5076557;28;20035;-81
2022/03/17 01:09:58;;;;;;;81.80;38.17;;;;;;;;;;5059440;28;20031;-81
2022/03/17 01:12:23;;;;;;;69.10;31.05;;;;;;;;;;5075620;28;20354;-82
2022/03/17 01:14:49;;;;;;;77.55;34.03;;;;;;;;;;5058940;28;20357;-81
2022/03/17 01:17:14;;;;;;;75.07;34.58;;;;;;;;;;5058698;28;20037;-82
2022/03/17 01:19:40;;;;;;;76.35;35.72;;;;;;;;;;5076516;28;20096;-82
2022/03/17 01:22:05;;;;;;;76.55;38.10;;;;;;;;;;5075924;28;20473;-82
2022/03/17 01:24:31;;;;;;;70.70;31.30;;;;;;;;;;5077110;28;20032;-82
2022/03/17 01:26:56;;;;;;;65.80;28.67;;;;;;;;;;5076538;28;20029;-81
2022/03/17 01:29:23;;;;;;;68.28;30.27;;;;;;;;;;5076417;28;20028;-82
2022/03/17 01:31:50;;;;;;;72.13;32.15;;;;;;;;;;5075223;28;20032;-82
2022/03/17 01:34:17;;;;;;;67.97;31.65;;;;;;;;;;5074943;28;20448;-81
2022/03/17 01:36:43;;;;;;;67.18;31.10;;;;;;;;;;5075234;28;20028;-80
2022/03/17 01:39:08;;;;;;;64.57;30.67;;;;;;;;;;5058660;28;20497;-83
2022/03/17 01:41:34;;;;;;;67.75;32.30;;;;;;;;;;5075033;28;20087;-83
2022/03/17 01:43:59;;;;;;;74.38;33.67;;;;;;;;;;5076120;28;20045;-82
2022/03/17 01:46:25;;;;;;;76.45;35.05;;;;;;;;;;5076464;28;20056;-82
2022/03/17 01:48:50;;;;;;;73.63;36.08;;;;;;;;;;5075802;28;20024;-82
2022/03/17 01:51:16;;;;;;;72.55;34.13;;;;;;;;;;5076030;28;20041;-82
2022/03/17 01:53:41;;;;;;;63.35;31.02;;;;;;;;;;5075036;28;20025;-82
2022/03/17 01:56:07;;;;;;;59.88;28.67;;;;;;;;;;5058038;28;20035;-82
2022/03/17 01:58:32;;;;;;;71.63;35.72;;;;;;;;;;5074754;28;20028;-82
2022/03/17 02:00:58;;;;;;;66.32;32.05;;;;;;;;;;5058047;28;20028;-82
2022/03/17 02:03:27;;;;;;;67.22;31.95;;;;;;;;;;5074361;28;20063;-82
2022/03/17 02:05:53;;;;;;;68.45;33.17;;;;;;;;;;5084581;28;20024;-82
2022/03/17 02:08:18;;;;;;;70.82;33.47;;;;;;;;;;5074478;28;20452;-82
2022/03/17 02:13:28;;;;;;;74.00;33.38;;;;;;;;;;5076025;28;20485;-82
2022/03/17 02:15:54;;;;;;;69.80;34.03;;;;;;;;;;5058061;28;20024;-81
2022/03/17 02:18:19;;;;;;;78.30;37.70;;;;;;;;;;5056641;28;20074;-82
2022/03/17 02:20:45;;;;;;;74.03;34.58;;;;;;;;;;5057761;28;20025;-82
2022/03/17 02:26:00;;;;;;;74.75;35.53;;;;;;;;;;5080928;28;20450;-81
2022/03/17 02:28:26;;;;;;;71.23;34.63;;;;;;;;;;5062676;28;20035;-82
2022/03/17 02:30:52;;;;;;;69.10;32.75;;;;;;;;;;5075100;28;20503;-83
2022/03/17 02:33:18;;;;;;;84.18;39.28;;;;;;;;;;5073990;28;20032;-82
2022/03/17 02:35:44;;;;;;;94.00;41.45;;;;;;;;;;5074222;28;20043;-83
2022/03/17 02:38:16;;;;;;;83.25;39.65;;;;;;;;;;5057496;28;20101;-82
2022/03/17 02:40:45;;;;;;;81.40;38.17;;;;;;;;;;5042424;28;20419;-83
2022/03/17 02:43:14;;;;;;;84.90;36.57;;;;;;;;;;5057128;28;20063;-82
2022/03/17 02:45:40;;;;;;;82.80;37.53;;;;;;;;;;5057749;28;20036;-82
2022/03/17 02:48:06;;;;;;;73.97;36.25;;;;;;;;;;5080662;28;20082;-82
2022/03/17 02:50:31;;;;;;;84.63;38.25;;;;;;;;;;5057279;28;20123;-82
2022/03/17 02:52:59;;;;;;;80.30;38.15;;;;;;;;;;5057305;28;20115;-82
2022/03/17 02:55:24;;;;;;;82.47;40.03;;;;;;;;;;5073550;28;20123;-82
2022/03/17 02:57:50;;;;;;;79.72;36.85;;;;;;;;;;5056935;28;20111;-82
2022/03/17 03:00:16;;;;;;;89.93;38.58;;;;;;;;;;5056785;28;20385;-83
2022/03/17 03:02:42;;;;;;;85.53;39.53;;;;;;;;;;5057056;28;20033;-82
2022/03/17 03:05:08;;;;;;;82.00;38.90;;;;;;;;;;5056767;28;20036;-82
2022/03/17 03:07:34;;;;;;;88.53;38.95;;;;;;;;;;5073665;28;20036;-83
2022/03/17 03:10:00;;;;;;;77.70;37.47;;;;;;;;;;5093303;28;20469;-83
2022/03/17 03:12:25;;;;;;;70.90;33.63;;;;;;;;;;5074504;28;20027;-82
2022/03/17 03:14:51;;;;;;;72.50;34.63;;;;;;;;;;5073452;28;20020;-82
2022/03/17 03:17:17;;;;;;;73.50;35.28;;;;;;;;;;5073737;28;20028;-82
2022/03/17 03:19:43;;;;;;;71.50;34.10;;;;;;;;;;5073475;28;20047;-83
2022/03/17 03:22:08;;;;;;;74.20;35.47;;;;;;;;;;5074357;28;20095;-83
2022/03/17 03:24:34;;;;;;;76.50;35.75;;;;;;;;;;5073115;28;20024;-82
2022/03/17 03:26:59;;;;;;;74.85;35.95;;;;;;;;;;5056909;28;20032;-83
2022/03/17 03:29:28;;;;;;;73.10;35.92;;;;;;;;;;5056465;28;20031;-82
2022/03/17 03:32:00;;;;;;;77.15;35.47;;;;;;;;;;5078456;28;20096;-83
2022/03/17 03:34:26;;;;;;;75.53;36.92;;;;;;;;;;5074437;28;20024;-82
2022/03/17 03:39:36;;;;;;;82.15;39.25;;;;;;;;;;5073714;28;20127;-83
2022/03/17 03:42:02;;;;;;;83.05;39.70;;;;;;;;;;5073486;28;20033;-82
2022/03/17 03:44:28;;;;;;;77.38;38.10;;;;;;;;;;5081368;28;20058;-82
2022/03/17 03:46:53;;;;;;;74.88;37.03;;;;;;;;;;5074388;28;20121;-83
2022/03/17 03:49:19;;;;;;;72.50;36.60;;;;;;;;;;5073278;28;20488;-83
2022/03/17 03:51:44;;;;;;;78.25;39.33;;;;;;;;;;5074904;28;20032;-85
2022/03/17 03:54:13;;;;;;;78.60;37.35;;;;;;;;;;5075952;28;20036;-82
2022/03/17 03:56:40;;;;;;;77.90;35.95;;;;;;;;;;5057075;28;20132;-82
2022/03/17 03:59:12;;;;;;;88.05;40.20;;;;;;;;;;5059332;28;20025;-83
2022/03/17 04:01:38;;;;;;;84.13;37.83;;;;;;;;;;5088116;28;20059;-80
2022/03/17 04:04:03;;;;;;;80.53;37.70;;;;;;;;;;5051649;28;20037;-82
2022/03/17 04:06:30;;;;;;;82.75;38.65;;;;;;;;;;5080501;28;20025;-82
2022/03/17 04:08:56;;;;;;;77.22;35.15;;;;;;;;;;5062131;28;20029;-82
2022/03/17 04:11:21;;;;;;;80.80;37.58;;;;;;;;;;5079262;28;20032;-83
2022/03/17 04:13:47;;;;;;;79.30;38.65;;;;;;;;;;5075665;28;20123;-81
2022/03/17 04:16:12;;;;;;;69.30;26.38;;;;;;;;;;5074419;28;20029;-81
2022/03/17 04:18:38;;;;;;;75.72;32.30;;;;;;;;;;5073872;28;20493;-81
2022/03/17 04:21:03;;;;;;;64.22;27.73;;;;;;;;;;5073922;28;20025;-81
2022/03/17 04:23:29;;;;;;;54.70;22.92;;;;;;;;;;5073896;28;20032;-82
2022/03/17 04:25:54;;;;;;;52.00;23.77;;;;;;;;;;5073840;28;20028;-83
2022/03/17 04:28:20;;;;;;;58.75;23.77;;;;;;;;;;5072484;28;20047;-82
2022/03/17 04:30:45;;;;;;;56.72;22.17;;;;;;;;;;5072763;28;20033;-83
2022/03/17 04:33:11;;;;;;;51.90;21.98;;;;;;;;;;5073725;28;20056;-82
2022/03/17 04:35:37;;;;;;;51.28;22.15;;;;;;;;;;5055964;28;20025;-82
2022/03/17 04:38:02;;;;;;;51.05;21.38;;;;;;;;;;5076801;28;20036;-83
2022/03/17 04:40:28;;;;;;;53.70;21.35;;;;;;;;;;5072582;28;20056;-83
2022/03/17 04:42:53;;;;;;;62.80;24.52;;;;;;;;;;5075505;28;20052;-83
2022/03/17 04:45:19;;;;;;;62.53;25.05;;;;;;;;;;5059397;28;20382;-83
2022/03/17 04:47:45;;;;;;;55.78;20.90;;;;;;;;;;5076099;28;20070;-82
2022/03/17 04:50:11;;;;;;;44.38;18.95;;;;;;;;;;5076111;28;20029;-82
2022/03/17 04:55:21;;;;;;;47.85;21.15;;;;;;;;;;5062060;28;20067;-83
2022/03/17 04:57:47;;;;;;;51.25;18.83;;;;;;;;;;5076908;28;20508;-82
2022/03/17 05:00:13;;;;;;;53.10;20.60;;;;;;;;;;5075843;28;20034;-82
2022/03/17 05:02:40;;;;;;;40.50;16.58;;;;;;;;;;5059239;28;20043;-83
2022/03/17 05:05:06;;;;;;;51.30;20.23;;;;;;;;;;5059229;28;20468;-82
2022/03/17 05:07:32;;;;;;;49.38;19.77;;;;;;;;;;5075682;28;20033;-83
2022/03/17 05:09:58;;;;;;;40.17;16.55;;;;;;;;;;5075776;28;20032;-82
2022/03/17 05:12:23;;;;;;;49.63;19.25;;;;;;;;;;5075442;28;20039;-83
2022/03/17 05:14:49;;;;;;;42.08;17.38;;;;;;;;;;5058679;28;20041;-82
2022/03/17 05:17:14;;;;;;;36.33;15.07;;;;;;;;;;5075607;28;20082;-80
2022/03/17 05:19:42;;;;;;;38.03;14.13;;;;;;;;;;5059122;28;20492;-82
2022/03/17 05:22:07;;;;;;;21.08;10.68;;;;;;;;;;5058870;28;20024;-82
2022/03/17 05:24:33;;;;;;;26.50;12.25;;;;;;;;;;5076577;28;20086;-81
2022/03/17 05:26:59;;;;;;;32.28;11.98;;;;;;;;;;5075309;28;20085;-82
2022/03/17 05:29:24;;;;;;;24.15;10.48;;;;;;;;;;5075816;28;20028;-88
2022/03/17 05:31:50;;;;;;;33.72;13.98;;;;;;;;;;5059660;28;20423;-85
2022/03/17 05:34:15;;;;;;;27.80;12.60;;;;;;;;;;5060168;28;20024;-82
2022/03/17 05:36:41;;;;;;;42.90;18.80;;;;;;;;;;5075195;28;20518;-79
2022/03/17 05:39:06;;;;;;;34.53;16.55;;;;;;;;;;5077529;28;20077;-74
2022/03/17 05:41:32;;;;;;;31.42;10.88;;;;;;;;;;5066973;28;20060;-76
2022/03/17 05:43:57;;;;;;;27.23;13.20;;;;;;;;;;5057192;28;20462;-78
2022/03/17 05:46:25;;;;;;;21.92;8.65;;;;;;;;;;5054587;28;20490;-78
2022/03/17 05:49:01;;;;;;;24.85;10.57;;;;;;;;;;5055410;28;20116;-78
2022/03/17 05:51:26;;;;;;;35.25;13.73;;;;;;;;;;5065488;28;20025;-81
2022/03/17 05:53:52;;;;;;;36.08;13.35;;;;;;;;;;5058848;28;20039;-78
2022/03/17 05:56:17;;;;;;;20.60;10.45;;;;;;;;;;5055879;28;20055;-78
2022/03/17 05:58:43;;;;;;;24.67;12.05;;;;;;;;;;5057601;28;20036;-80
2022/03/17 06:01:11;;;;;;;26.13;10.80;;;;;;;;;;5060609;28;20028;-79
2022/03/17 06:04:34;;;;;;;39.78;14.95;;;;;;;;;;5070334;28;20447;-84
2022/03/17 06:07:17;;;;;;;34.88;14.23;;;;;;;;;;5076778;28;20472;-81
2022/03/17 06:09:46;;;;;;;22.50;10.27;;;;;;;;;;5066915;28;20031;-85
2022/03/17 06:15:44;;;;;;;29.35;11.27;;;;;;;;;;5023258;28;20045;-80
2022/03/17 06:18:10;;;;;;;18.70;8.10;;;;;;;;;;5024400;28;20033;-81
2022/03/17 06:20:51;;;;;;;14.43;7.07;;;;;;;;;;5067697;28;20454;-81
2022/03/17 06:23:16;;;;;;;12.90;6.30;;;;;;;;;;5046979;28;20446;-81
2022/03/17 06:25:42;;;;;;;21.80;8.13;;;;;;;;;;5076681;28;20035;-82
2022/03/17 06:35:01;;;;;;;20.90;8.52;;;;;;;;;;5627457;22;20049;-82
2022/03/17 06:37:27;;;;;;;24.15;10.18;;;;;;;;;;4947935;29;20040;-83
2022/03/17 06:39:56;;;;;;;24.42;10.55;;;;;;;;;;4914305;28;20032;-79
2022/03/17 06:42:27;;;;;;;16.27;8.18;;;;;;;;;;5043264;28;20063;-82
2022/03/17 06:44:52;;;;;;;13.98;6.85;;;;;;;;;;5013086;28;20036;-79
2022/03/17 06:47:20;;;;;;;16.92;7.80;;;;;;;;;;5103789;23;20054;-80
2022/03/17 06:49:47;;;;;;;15.15;5.28;;;;;;;;;;5043281;28;20468;-81
2022/03/17 06:52:13;;;;;;;16.08;7.15;;;;;;;;;;5042886;28;21359;-80
2022/03/17 06:54:42;;;;;;;13.45;5.80;;;;;;;;;;5042277;28;20021;-79
2022/03/17 06:59:55;;;;;;;19.52;8.65;;;;;;;;;;5350684;22;20061;-80
2022/03/17 07:02:24;;;;;;;17.30;8.60;;;;;;;;;;5027961;28;20044;-79
2022/03/17 07:04:49;;;;;;;20.50;9.38;;;;;;;;;;5023928;28;20136;-79
2022/03/17 07:07:15;;;;;;;16.13;8.05;;;;;;;;;;5021979;23;20602;-79
2022/03/17 07:09:44;;;;;;;13.25;6.18;;;;;;;;;;5027805;28;20057;-83
2022/03/17 07:17:55;;;;;;;19.92;7.57;;;;;;;;;;5020494;28;20395;-79
2022/03/17 07:20:23;;;;;;;15.48;6.90;;;;;;;;;;5024370;28;20136;-79
2022/03/17 07:23:28;;;;;;;22.88;9.05;;;;;;;;;;5006126;28;20056;-82
2022/03/17 07:26:08;;;;;;;17.13;7.03;;;;;;;;;;4930595;29;20482;-80
2022/03/17 07:28:35;;;;;;;17.65;7.43;;;;;;;;;;4946350;28;20043;-81
2022/03/17 07:31:35;;;;;;;17.98;6.93;;;;;;;;;;4941465;29;20089;-80
2022/03/17 07:39:55;;;;;;;34.22;12.55;;;;;;;;;;5224867;22;20060;-77
2022/03/17 07:42:21;;;;;;;25.92;10.57;;;;;;;;;;5353602;22;20235;-84
2022/03/17 07:44:47;;;;;;;21.85;9.88;;;;;;;;;;5061173;28;20389;-80
2022/03/17 07:47:13;;;;;;;35.78;14.45;;;;;;;;;;5074084;28;20032;-84
2022/03/17 07:49:42;;;;;;;25.98;10.48;;;;;;;;;;5052162;28;20048;-83
2022/03/17 07:52:36;;;;;;;26.10;11.63;;;;;;;;;;5048068;28;20584;-86
2022/03/17 07:55:02;;;;;;;33.40;13.32;;;;;;;;;;5075335;22;20060;-80
2022/03/17 07:57:27;;;;;;;26.58;12.35;;;;;;;;;;5012610;28;20429;-81
2022/03/17 07:59:54;;;;;;;26.50;13.73;;;;;;;;;;5017781;28;20029;-77
2022/03/17 08:02:20;;;;;;;21.70;11.15;;;;;;;;;;5028659;28;20108;-78
2022/03/17 08:04:48;;;;;;;21.90;8.93;;;;;;;;;;5036549;28;20116;-80
2022/03/17 08:07:15;;;;;;;23.30;9.55;;;;;;;;;;5011616;28;20036;-79
2022/03/17 08:09:41;;;;;;;18.60;9.55;;;;;;;;;;5022425;28;20361;-83
2022/03/17 08:12:07;;;;;;;21.88;11.32;;;;;;;;;;5027855;28;20033;-79
2022/03/17 08:14:33;;;;;;;18.77;10.52;;;;;;;;;;5017612;28;20063;-80
2022/03/17 08:16:59;;;;;;;23.50;9.65;;;;;;;;;;5057365;28;20025;-86
2022/03/17 08:19:25;;;;;;;24.00;10.57;;;;;;;;;;5043519;28;20040;-79
2022/03/17 08:21:50;;;;;;;16.58;8.30;;;;;;;;;;5004103;28;20375;-78
2022/03/17 08:24:16;;;;;;;19.35;8.13;;;;;;;;;;5035341;28;20064;-80
2022/03/17 08:26:41;;;;;;;21.48;10.00;;;;;;;;;;5018636;28;20034;-80
2022/03/17 08:29:07;;;;;;;16.20;6.45;;;;;;;;;;5004537;28;20037;-79
2022/03/17 08:31:41;;;;;;;23.88;8.35;;;;;;;;;;5047405;28;20517;-82
2022/03/17 08:34:34;;;;;;;19.83;9.68;;;;;;;;;;5030848;28;20041;-82
2022/03/17 08:37:00;;;;;;;20.95;7.18;;;;;;;;;;5029248;28;20063;-82
2022/03/17 08:39:26;;;;;;;23.20;9.68;;;;;;;;;;5049034;28;20033;-81
2022/03/17 08:41:52;;;;;;;29.80;13.82;;;;;;;;;;5037904;28;20036;-82
2022/03/17 08:44:19;;;;;;;26.48;12.23;;;;;;;;;;5021658;28;20032;-83
2022/03/17 08:49:39;;;;;;;24.88;10.25;;;;;;;;;;5042911;28;20128;-82
2022/03/17 08:52:07;;;;;;;28.85;11.15;;;;;;;;;;5037419;28;20108;-82
2022/03/17 08:54:34;;;;;;;21.75;11.70;;;;;;;;;;5019285;28;20049;-81
2022/03/17 08:57:11;;;;;;;40.78;14.80;;;;;;;;;;5034359;28;20565;-84
2022/03/17 08:59:40;;;;;;;19.95;8.73;;;;;;;;;;5014765;28;20044;-83
2022/03/17 09:02:07;;;;;;;23.17;9.65;;;;;;;;;;5015564;28;20041;-81
2022/03/17 09:04:33;;;;;;;20.27;9.25;;;;;;;;;;5052670;28;20033;-81
2022/03/17 09:06:59;;;;;;;23.67;9.38;;;;;;;;;;5018437;28;20105;-83
2022/03/17 09:09:32;;;;;;;30.02;9.73;;;;;;;;;;5016061;28;20026;-83
2022/03/17 09:11:58;;;;;;;20.27;9.98;;;;;;;;;;5031832;28;20424;-82
2022/03/17 09:14:24;;;;;;;25.55;10.57;;;;;;;;;;5030975;28;20037;-82
2022/03/17 09:16:49;;;;;;;29.27;10.23;;;;;;;;;;5029957;28;20021;-82
2022/03/17 09:19:15;;;;;;;25.55;10.38;;;;;;;;;;5047459;28;20021;-82
2022/03/17 09:21:41;;;;;;;19.25;9.45;;;;;;;;;;5038585;28;20063;-83
2022/03/17 09:24:06;;;;;;;27.00;12.57;;;;;;;;;;5038176;28;20020;-83
2022/03/17 09:26:32;;;;;;;28.88;11.88;;;;;;;;;;5038414;28;20029;-83
2022/03/17 09:28:58;;;;;;;31.17;10.65;;;;;;;;;;5038376;28;20025;-81
2022/03/17 09:31:24;;;;;;;16.58;9.48;;;;;;;;;;5053894;28;20029;-82
2022/03/17 09:33:49;;;;;;;25.40;11.85;;;;;;;;;;5020926;28;20040;-81
2022/03/17 09:36:16;;;;;;;24.17;11.13;;;;;;;;;;5056254;28;20021;-80
2022/03/17 09:38:42;;;;;;;45.47;14.65;;;;;;;;;;5035427;28;20080;-82
2022/03/17 09:41:23;;;;;;;37.35;14.48;;;;;;;;;;5023773;28;20047;-82
2022/03/17 09:43:48;;;;;;;33.55;11.38;;;;;;;;;;5025041;28;20351;-82
2022/03/17 09:46:25;;;;;;;74.30;22.23;;;;;;;;;;5018589;28;20071;-81
2022/03/17 09:48:52;;;;;;;43.50;16.27;;;;;;;;;;5007193;28;20188;-81
2022/03/17 09:51:19;;;;;;;56.65;16.95;;;;;;;;;;4989618;28;20602;-83
2022/03/17 09:53:45;;;;;;;178.30;39.88;;;;;;;;;;5014548;28;20049;-81
2022/03/17 09:56:10;;;;;;;38.10;14.30;;;;;;;;;;5035298;28;20149;-81
2022/03/17 09:58:36;;;;;;;39.15;15.45;;;;;;;;;;5019654;28;20033;-80
2022/03/17 10:01:21;;;;;;;26.45;11.48;;;;;;;;;;5055411;28;20032;-79
2022/03/17 10:04:07;;;;;;;19.67;11.13;;;;;;;;;;5006483;28;20040;-82
2022/03/17 10:06:36;;;;;;;22.55;10.88;;;;;;;;;;5054364;28;20050;-84
2022/03/17 10:09:02;;;;;;;35.55;13.30;;;;;;;;;;5052009;28;20053;-82
2022/03/17 10:11:31;;;;;;;26.45;12.20;;;;;;;;;;5034307;28;20017;-80
2022/03/17 10:13:57;;;;;;;32.53;12.50;;;;;;;;;;5019046;28;20036;-81
2022/03/17 10:16:24;;;;;;;28.50;11.38;;;;;;;;;;5037118;28;20087;-79
2022/03/17 10:19:08;;;;;;;19.67;9.45;;;;;;;;;;5022540;28;20087;-79
2022/03/17 10:21:34;;;;;;;28.42;12.75;;;;;;;;;;5038869;28;20033;-79
2022/03/17 10:24:08;;;;;;;26.42;12.30;;;;;;;;;;5056581;28;20036;-81
2022/03/17 10:26:54;;;;;;;25.80;12.20;;;;;;;;;;5025375;28;20036;-81
2022/03/17 10:29:25;;;;;;;23.17;10.98;;;;;;;;;;5049832;28;20070;-81
2022/03/17 10:32:06;;;;;;;27.17;11.57;;;;;;;;;;5015112;28;20126;-80
2022/03/17 10:34:34;;;;;;;28.30;13.82;;;;;;;;;;5048167;28;20027;-79
2022/03/17 10:37:16;;;;;;;38.35;14.43;;;;;;;;;;5021903;28;20359;-79
2022/03/17 10:40:10;;;;;;;25.75;11.27;;;;;;;;;;5020524;28;20097;-78
2022/03/17 10:42:36;;;;;;;24.52;11.52;;;;;;;;;;5037480;28;20113;-80
2022/03/17 10:45:06;;;;;;;25.73;11.45;;;;;;;;;;5058279;28;20068;-83
2022/03/17 10:47:34;;;;;;;22.02;11.18;;;;;;;;;;5039708;28;20025;-80
2022/03/17 10:50:07;;;;;;;28.35;12.32;;;;;;;;;;5020015;28;20025;-80
2022/03/17 10:52:52;;;;;;;34.28;14.80;;;;;;;;;;5044860;28;20033;-82
2022/03/17 10:55:25;;;;;;;23.65;11.48;;;;;;;;;;5046829;28;20053;-79
2022/03/17 10:57:53;;;;;;;23.85;10.30;;;;;;;;;;5032557;28;20041;-79
2022/03/17 11:00:21;;;;;;;27.00;11.43;;;;;;;;;;5038521;28;20021;-79
2022/03/17 11:02:49;;;;;;;27.02;11.70;;;;;;;;;;5053836;28;20036;-79
2022/03/17 11:05:17;;;;;;;25.65;11.25;;;;;;;;;;5053533;28;20503;-79
2022/03/17 11:07:44;;;;;;;31.27;12.20;;;;;;;;;;5049132;28;20037;-80
2022/03/17 11:10:10;;;;;;;26.60;12.32;;;;;;;;;;5054480;28;20020;-79
2022/03/17 11:12:35;;;;;;;26.65;12.77;;;;;;;;;;5053923;28;20029;-79
2022/03/17 11:15:01;;;;;;;33.47;16.13;;;;;;;;;;5018548;28;20064;-79
2022/03/17 11:17:31;;;;;;;23.55;13.35;;;;;;;;;;5023648;28;20029;-79
2022/03/17 11:20:12;;;;;;;32.63;14.57;;;;;;;;;;5031136;28;20037;-82
2022/03/17 11:22:39;;;;;;;37.30;15.45;;;;;;;;;;5027990;28;20086;-78
2022/03/17 11:25:25;;;;;;;51.72;18.75;;;;;;;;;;5036081;28;20025;-81
2022/03/17 11:27:59;;;;;;;34.00;16.70;;;;;;;;;;5027222;28;20064;-78
2022/03/17 11:30:29;;;;;;;52.92;21.55;;;;;;;;;;5011756;28;20467;-82
2022/03/17 11:32:58;;;;;;;45.60;20.48;;;;;;;;;;5044906;28;20429;-82
2022/03/17 11:35:29;;;;;;;55.08;24.13;;;;;;;;;;5031994;28;20033;-81
2022/03/17 11:38:43;;;;;;;70.97;27.27;;;;;;;;;;5015728;28;20168;-83
2022/03/17 11:41:17;;;;;;;30.30;13.68;;;;;;;;;;5006677;28;20470;-79
2022/03/17 11:43:45;;;;;;;34.38;14.30;;;;;;;;;;5013508;28;20398;-82
2022/03/17 11:46:14;;;;;;;28.77;12.07;;;;;;;;;;5028597;28;20033;-81
2022/03/17 11:48:40;;;;;;;37.05;17.10;;;;;;;;;;5027807;28;20124;-80
2022/03/17 11:51:06;;;;;;;26.98;13.32;;;;;;;;;;4995697;28;20112;-82
2022/03/17 11:53:37;;;;;;;35.72;15.57;;;;;;;;;;5027218;28;20347;-79
2022/03/17 11:56:03;;;;;;;31.40;14.75;;;;;;;;;;5032295;28;20046;-79
2022/03/17 11:58:47;;;;;;;29.50;13.75;;;;;;;;;;5016159;28;20095;-83
2022/03/17 12:01:29;;;;;;;30.48;13.13;;;;;;;;;;5008687;28;20257;-79
2022/03/17 12:04:02;;;;;;;25.35;13.00;;;;;;;;;;5025079;28;20030;-79
2022/03/17 12:06:28;;;;;;;26.02;12.63;;;;;;;;;;5010112;28;20406;-79
2022/03/17 12:09:04;;;;;;;23.50;12.50;;;;;;;;;;5009929;28;20033;-81
2022/03/17 12:11:47;;;;;;;24.80;11.85;;;;;;;;;;5010491;28;20064;-80
2022/03/17 12:14:22;;;;;;;29.98;15.25;;;;;;;;;;5028635;28;20029;-79
2022/03/17 12:16:59;;;;;;;27.33;13.32;;;;;;;;;;5019253;28;20046;-79
2022/03/17 12:19:38;;;;;;;36.75;15.07;;;;;;;;;;5031594;28;20033;-78
2022/03/17 12:22:11;;;;;;;68.50;22.05;;;;;;;;;;5016677;28;20026;-79
2022/03/17 12:24:45;;;;;;;43.17;14.45;;;;;;;;;;5000332;28;20029;-79
2022/03/17 12:27:14;;;;;;;33.88;14.43;;;;;;;;;;5015925;28;20116;-79
2022/03/17 12:29:41;;;;;;;42.33;16.33;;;;;;;;;;4999617;28;20053;-83
2022/03/17 12:32:10;;;;;;;47.10;20.65;;;;;;;;;;5000119;28;20039;-80
2022/03/17 12:34:36;;;;;;;32.72;13.27;;;;;;;;;;5017458;28;20045;-79
2022/03/17 12:37:02;;;;;;;37.55;17.95;;;;;;;;;;5015794;28;20017;-77
2022/03/17 12:39:28;;;;;;;29.77;14.82;;;;;;;;;;5013788;28;20134;-78
2022/03/17 12:41:55;;;;;;;35.67;20.25;;;;;;;;;;5014155;28;20027;-78
2022/03/17 12:44:22;;;;;;;38.47;18.40;;;;;;;;;;5014181;28;20108;-78
2022/03/17 12:46:48;;;;;;;33.78;16.98;;;;;;;;;;5031636;28;20032;-78
2022/03/17 12:49:14;;;;;;;33.78;17.80;;;;;;;;;;5014280;28;20439;-81
2022/03/17 12:51:39;;;;;;;28.05;14.48;;;;;;;;;;5032142;28;20455;-79
2022/03/17 12:54:04;;;;;;;26.42;13.77;;;;;;;;;;5014408;28;20102;-80
2022/03/17 12:56:31;;;;;;;37.78;18.63;;;;;;;;;;5032416;28;20041;-80
2022/03/17 12:59:04;;;;;;;25.42;13.52;;;;;;;;;;5003094;28;20040;-81
2022/03/17 13:01:30;;;;;;;26.05;13.88;;;;;;;;;;5003034;28;20030;-84
2022/03/17 13:03:58;;;;;;;28.95;13.85;;;;;;;;;;4987915;28;20022;-83
2022/03/17 13:09:11;;;;;;;78.47;34.92;;;;;;;;;;5008112;28;20477;-81
2022/03/17 13:14:20;;;;;;;51.15;22.00;;;;;;;;;;5030992;28;20048;-85
2022/03/17 13:16:46;;;;;;;54.55;23.92;;;;;;;;;;5017490;28;20033;-80
2022/03/17 13:19:11;;;;;;;31.77;13.35;;;;;;;;;;4988991;28;20025;-82
2022/03/17 13:21:38;;;;;;;26.27;14.23;;;;;;;;;;5030418;28;20033;-80
2022/03/17 13:24:15;;;;;;;25.23;14.00;;;;;;;;;;5037240;28;20124;-84
2022/03/17 13:26:41;;;;;;;46.17;21.02;;;;;;;;;;5003677;28;20029;-83
2022/03/17 13:29:27;;;;;;;31.33;17.88;;;;;;;;;;5019834;28;20034;-83
2022/03/17 13:31:52;;;;;;;23.17;14.07;;;;;;;;;;5022715;28;20092;-83
2022/03/17 13:37:20;;;;;;;21.85;13.65;;;;;;;;;;5012122;28;20057;-82
2022/03/17 13:39:46;;;;;;;19.73;12.02;;;;;;;;;;5036540;28;20033;-84
2022/03/17 13:42:13;;;;;;;21.90;12.98;;;;;;;;;;4998342;28;20033;-79
2022/03/17 13:44:49;;;;;;;23.80;13.25;;;;;;;;;;5028988;28;20080;-80
2022/03/17 13:47:21;;;;;;;35.85;17.90;;;;;;;;;;5022475;28;20025;-81
2022/03/17 13:50:09;;;;;;;25.65;14.23;;;;;;;;;;5004662;28;20021;-84
2022/03/17 13:52:35;;;;;;;25.05;14.15;;;;;;;;;;5001927;28;20482;-82
2022/03/17 13:55:00;;;;;;;28.95;15.85;;;;;;;;;;5007557;28;20056;-79
2022/03/17 13:57:26;;;;;;;26.05;15.35;;;;;;;;;;5038280;28;20048;-78
2022/03/17 13:59:51;;;;;;;24.45;13.95;;;;;;;;;;5035621;28;20108;-79
2022/03/17 14:02:22;;;;;;;22.70;12.90;;;;;;;;;;5036264;28;20434;-81
2022/03/17 14:04:54;;;;;;;24.15;12.57;;;;;;;;;;5035439;28;20091;-80
2022/03/17 14:07:20;;;;;;;23.52;13.73;;;;;;;;;;5018370;28;20033;-78
2022/03/17 14:09:46;;;;;;;30.23;16.60;;;;;;;;;;5017199;28;20458;-79
2022/03/17 14:12:11;;;;;;;58.50;24.13;;;;;;;;;;5034050;28;20104;-81
2022/03/17 14:14:37;;;;;;;42.30;17.80;;;;;;;;;;5016597;28;20041;-75
2022/03/17 14:17:02;;;;;;;41.00;18.23;;;;;;;;;;5043430;28;20104;-77
2022/03/17 14:19:29;;;;;;;33.15;18.13;;;;;;;;;;5036417;28;20037;-78
2022/03/17 14:24:41;;;;;;;27.02;14.95;;;;;;;;;;5035925;28;20040;-81
2022/03/17 14:27:07;;;;;;;28.80;15.07;;;;;;;;;;5023076;28;20021;-80
2022/03/17 14:29:32;;;;;;;24.52;13.85;;;;;;;;;;5042471;28;20047;-79
2022/03/17 14:31:58;;;;;;;31.00;14.48;;;;;;;;;;5018915;28;20032;-80
2022/03/17 14:34:25;;;;;;;22.00;13.32;;;;;;;;;;5035691;28;20502;-80
2022/03/17 14:36:52;;;;;;;22.50;12.20;;;;;;;;;;5006425;28;20034;-81
2022/03/17 14:39:18;;;;;;;19.85;11.85;;;;;;;;;;5001719;28;20033;-82
2022/03/17 14:41:43;;;;;;;21.98;13.70;;;;;;;;;;5034085;28;20038;-83
2022/03/17 14:44:09;;;;;;;22.13;13.77;;;;;;;;;;5035461;28;20481;-84
2022/03/17 14:46:34;;;;;;;26.90;16.73;;;;;;;;;;5001609;28;20374;-82
2022/03/17 14:49:01;;;;;;;29.65;19.30;;;;;;;;;;5002335;28;20116;-82
2022/03/17 14:51:27;;;;;;;21.73;13.23;;;;;;;;;;5001050;28;20030;-81
2022/03/17 14:53:53;;;;;;;24.35;13.57;;;;;;;;;;5001293;28;20378;-81
2022/03/17 14:56:20;;;;;;;37.55;17.63;;;;;;;;;;5017284;28;20133;-81
2022/03/17 14:58:48;;;;;;;28.77;14.82;;;;;;;;;;5038517;28;20025;-81
2022/03/17 15:01:14;;;;;;;30.85;16.88;;;;;;;;;;5034841;28;20045;-81
2022/03/17 15:03:44;;;;;;;36.53;20.05;;;;;;;;;;5017464;28;20139;-81
2022/03/17 15:06:14;;;;;;;20.27;12.85;;;;;;;;;;5017073;28;20037;-82
2022/03/17 15:08:40;;;;;;;80.53;31.80;;;;;;;;;;5001684;28;20061;-82
2022/03/17 15:11:06;;;;;;;31.77;16.77;;;;;;;;;;5033676;28;20025;-81
2022/03/17 15:13:32;;;;;;;50.67;23.95;;;;;;;;;;5017144;28;20029;-80
2022/03/17 15:15:57;;;;;;;40.97;20.70;;;;;;;;;;5033433;28;20029;-80